createdAt,value
2018-09-12T00:01:09.134Z,48.83
2018-09-12T00:02:18.993Z,48.83
2018-09-12T00:03:28.188Z,49.12
2018-09-12T00:04:37.372Z,49.02
2018-09-12T00:05:46.539Z,48.83
2018-09-12T00:06:55.712Z,48.83
2018-09-12T00:08:05.160Z,49.12
2018-09-12T00:09:14.842Z,49.12
2018-09-12T00:10:24.549Z,49.12
2018-09-12T00:11:34.223Z,49.02
2018-09-12T00:12:44.175Z,48.83
2018-09-12T00:13:53.381Z,49.02
2018-09-12T00:15:02.561Z,48.93
2018-09-12T00:16:11.746Z,49.12
2018-09-12T00:17:21.235Z,49.12
2018-09-12T00:18:30.933Z,48.93
2018-09-12T00:19:40.382Z,48.83
2018-09-12T00:20:49.560Z,48.83
2018-09-12T00:21:59.596Z,48.83
2018-09-12T00:23:09.291Z,48.83
2018-09-12T00:24:19.297Z,49.02
2018-09-12T00:25:28.210Z,48.83
2018-09-12T00:26:38.173Z,48.83
2018-09-12T00:27:47.607Z,49.12
2018-09-12T00:28:57.335Z,48.83
2018-09-12T00:30:06.764Z,48.93
2018-09-12T00:31:16.197Z,49.32
2018-09-12T00:32:25.617Z,48.93
2018-09-12T00:33:34.796Z,49.12
2018-09-12T00:34:43.758Z,48.83
2018-09-12T00:35:53.459Z,49.12
2018-09-12T00:37:02.627Z,48.83
2018-09-12T00:38:12.380Z,48.93
2018-09-12T00:39:21.550Z,48.83
2018-09-12T00:40:30.473Z,48.83
2018-09-12T00:41:39.890Z,48.93
2018-09-12T00:42:49.854Z,49.02
2018-09-12T00:43:59.279Z,48.93
2018-09-12T00:45:08.706Z,49.41
2018-09-12T00:46:18.392Z,48.93
2018-09-12T00:47:27.316Z,48.93
2018-09-12T00:48:36.757Z,49.41
2018-09-12T00:49:45.948Z,49.02
2018-09-12T00:50:55.644Z,49.51
2018-09-12T00:52:05.353Z,49.51
2018-09-12T00:53:14.522Z,49.32
2018-09-12T00:54:23.725Z,48.74
2018-09-12T00:55:33.442Z,48.83
2018-09-12T00:56:42.629Z,48.74
2018-09-12T00:57:52.307Z,49
2018-09-12T00:59:01.208Z,48.74
2018-09-12T01:00:10.389Z,49.49
2018-09-12T01:01:19.847Z,48.9
2018-09-12T01:02:29.557Z,49
2018-09-12T01:03:39.493Z,49.02
2018-09-12T01:04:48.676Z,49.49
2018-09-12T01:05:58.369Z,49.41
2018-09-12T01:07:08.375Z,49
2018-09-12T01:08:17.796Z,49.49
2018-09-12T01:09:27.482Z,49
2018-09-12T01:10:37.177Z,48.71
2018-09-12T01:11:46.877Z,49.19
2018-09-12T01:12:55.812Z,48.71
2018-09-12T01:14:05.246Z,49
2018-09-12T01:15:14.949Z,49.02
2018-09-12T01:16:24.917Z,49.39
2018-09-12T01:17:34.859Z,49.29
2018-09-12T01:18:44.308Z,49
2018-09-12T01:19:53.733Z,49
2018-09-12T01:21:03.429Z,49.49
2018-09-12T01:22:12.850Z,49
2018-09-12T01:23:21.830Z,49.02
2018-09-12T01:24:30.993Z,49
2018-09-12T01:25:40.953Z,49.29
2018-09-12T01:26:50.660Z,49
2018-09-12T01:27:59.814Z,49
2018-09-12T01:29:09.269Z,49
2018-09-12T01:30:18.952Z,48.71
2018-09-12T01:31:28.130Z,49
2018-09-12T01:32:37.036Z,49.19
2018-09-12T01:33:46.451Z,49.19
2018-09-12T01:34:56.404Z,49.29
2018-09-12T01:36:06.369Z,49.19
2018-09-12T01:37:16.058Z,49.1
2018-09-12T01:38:25.485Z,49.19
2018-09-12T01:39:34.907Z,49.1
2018-09-12T01:40:44.881Z,49.1
2018-09-12T01:41:54.043Z,49.1
2018-09-12T01:43:03.470Z,49.29
2018-09-12T01:44:13.224Z,49.1
2018-09-12T01:45:22.923Z,49.1
2018-09-12T01:46:32.607Z,49.1
2018-09-12T01:47:42.333Z,49.19
2018-09-12T01:48:51.761Z,49.19
2018-09-12T01:50:01.182Z,49.19
2018-09-12T01:51:11.139Z,49.19
2018-09-12T01:52:20.852Z,49.19
2018-09-12T01:53:30.629Z,49.1
2018-09-12T01:54:40.600Z,49.1
2018-09-12T01:55:49.791Z,49.1
2018-09-12T01:56:59.731Z,49.1
2018-09-12T01:58:09.156Z,49.19
2018-09-12T01:59:18.590Z,49.19
2018-09-12T02:00:27.759Z,49.1
2018-09-12T02:01:37.470Z,49.1
2018-09-12T02:02:46.901Z,49.1
2018-09-12T02:03:56.073Z,49.19
2018-09-12T02:05:06.057Z,49.1
2018-09-12T02:06:15.742Z,49.19
2018-09-12T02:07:25.153Z,49.19
2018-09-12T02:08:34.836Z,49.1
2018-09-12T02:09:44.514Z,49.1
2018-09-12T02:10:54.220Z,49.1
2018-09-12T02:12:03.392Z,49.1
2018-09-12T02:13:12.817Z,49.1
2018-09-12T02:14:22.503Z,49.1
2018-09-12T02:15:31.934Z,49.1
2018-09-12T02:16:40.877Z,49.19
2018-09-12T02:17:50.313Z,49.1
2018-09-12T02:18:59.750Z,49.1
2018-09-12T02:20:08.915Z,49.19
2018-09-12T02:21:18.889Z,49.19
2018-09-12T02:22:28.618Z,49.1
2018-09-12T02:23:38.044Z,49.1
2018-09-12T02:24:47.211Z,49.19
2018-09-12T02:25:57.208Z,49.58
2018-09-12T02:27:06.144Z,49.39
2018-09-12T02:28:15.870Z,49.49
2018-09-12T02:29:25.079Z,49.39
2018-09-12T02:30:34.516Z,49.19
2018-09-12T02:31:44.473Z,49.39
2018-09-12T02:32:54.167Z,49.39
2018-09-12T02:34:04.146Z,49.1
2018-09-12T02:35:13.849Z,49.58
2018-09-12T02:36:23.281Z,49.29
2018-09-12T02:37:32.983Z,49.19
2018-09-12T02:38:42.430Z,49.49
2018-09-12T02:39:51.896Z,49.1
2018-09-12T02:41:01.350Z,49.49
2018-09-12T02:42:10.531Z,49.1
2018-09-12T02:43:19.964Z,49.19
2018-09-12T02:44:29.144Z,49.1
2018-09-12T02:45:38.855Z,49.19
2018-09-12T02:46:48.799Z,49.29
2018-09-12T02:47:57.958Z,49.29
2018-09-12T02:49:07.139Z,49.1
2018-09-12T02:50:16.843Z,49.1
2018-09-12T02:51:26.001Z,49.49
2018-09-12T02:52:35.495Z,49.29
2018-09-12T02:53:44.927Z,49.77
2018-09-12T02:54:53.591Z,49.29
2018-09-12T02:56:03.275Z,49.29
2018-09-12T02:57:12.941Z,49.49
2018-09-12T02:58:22.636Z,49.29
2018-09-12T02:59:32.596Z,49.29
2018-09-12T03:00:41.791Z,49.29
2018-09-12T03:01:51.226Z,49.1
2018-09-12T03:03:00.931Z,49.68
2018-09-12T03:04:10.657Z,49.19
2018-09-12T03:05:20.121Z,49.1
2018-09-12T03:06:30.110Z,49.19
2018-09-12T03:07:39.288Z,49.1
2018-09-12T03:08:49.120Z,49.1
2018-09-12T03:09:58.802Z,49.1
2018-09-12T03:11:08.746Z,49.1
2018-09-12T03:12:18.192Z,49.19
2018-09-12T03:13:27.410Z,49.19
2018-09-12T03:14:36.853Z,49.1
2018-09-12T03:15:46.280Z,49.1
2018-09-12T03:16:55.723Z,49.19
2018-09-12T03:18:05.234Z,49.1
2018-09-12T03:19:14.926Z,49.58
2018-09-12T03:20:24.787Z,49.19
2018-09-12T03:21:34.395Z,49.58
2018-09-12T03:22:43.331Z,49.29
2018-09-12T03:23:52.763Z,49.49
2018-09-12T03:25:02.190Z,49.49
2018-09-12T03:26:11.110Z,49.39
2018-09-12T03:27:20.832Z,49.49
2018-09-12T03:28:30.024Z,49.49
2018-09-12T03:29:39.742Z,49.1
2018-09-12T03:30:49.177Z,49.1
2018-09-12T03:31:58.888Z,49.1
2018-09-12T03:34:50.122Z,49.1
2018-09-12T03:35:59.297Z,49.19
2018-09-12T03:37:08.747Z,49.19
2018-09-12T03:38:17.646Z,49.1
2018-09-12T03:39:26.897Z,49.29
2018-09-12T03:40:36.854Z,49.19
2018-09-12T03:41:46.081Z,49.1
2018-09-12T03:42:55.259Z,49.1
2018-09-12T03:44:04.179Z,49.1
2018-09-12T03:45:13.353Z,49.1
2018-09-12T03:46:22.774Z,49.1
2018-09-12T03:47:32.193Z,49.19
2018-09-12T03:48:42.174Z,49.19
2018-09-12T03:49:51.363Z,49.1
2018-09-12T03:51:01.085Z,49.19
2018-09-12T03:52:11.087Z,49.29
2018-09-12T03:53:21.039Z,49.19
2018-09-12T03:54:30.467Z,49.1
2018-09-12T03:55:40.159Z,49.19
2018-09-12T03:56:50.114Z,49.1
2018-09-12T03:57:59.294Z,49.1
2018-09-12T03:59:08.725Z,49.1
2018-09-12T04:00:18.419Z,49.1
2018-09-12T04:01:27.620Z,49.1
2018-09-12T04:02:37.391Z,49.1
2018-09-12T04:03:46.887Z,49.19
2018-09-12T04:04:55.805Z,49.1
2018-09-12T04:06:05.258Z,49.1
2018-09-12T04:07:14.452Z,49.1
2018-09-12T04:08:24.430Z,49
2018-09-12T04:09:34.392Z,49
2018-09-12T04:10:43.859Z,49
2018-09-12T04:11:53.786Z,49
2018-09-12T04:13:03.218Z,49.1
2018-09-12T04:14:12.636Z,48.81
2018-09-12T04:15:22.332Z,48.9
2018-09-12T04:16:32.012Z,48.81
2018-09-12T04:17:41.770Z,49.1
2018-09-12T04:18:50.939Z,49.1
2018-09-12T04:20:00.620Z,49
2018-09-12T04:21:10.296Z,49
2018-09-12T04:22:19.713Z,49
2018-09-12T04:23:28.902Z,49.1
2018-09-12T04:24:38.622Z,48.9
2018-09-12T04:25:47.821Z,48.81
2018-09-12T04:26:56.984Z,48.81
2018-09-12T04:28:06.408Z,49
2018-09-12T04:29:15.601Z,48.9
2018-09-12T04:30:25.283Z,49
2018-09-12T04:31:35.024Z,48.9
2018-09-12T04:32:44.174Z,49
2018-09-12T04:33:53.877Z,49
2018-09-12T04:35:03.091Z,49
2018-09-12T04:36:12.555Z,49.19
2018-09-12T04:37:22.250Z,49.1
2018-09-12T04:38:32.204Z,48.9
2018-09-12T04:39:41.904Z,49
2018-09-12T04:40:51.131Z,48.9
2018-09-12T04:42:00.555Z,49
2018-09-12T04:43:09.738Z,49
2018-09-12T04:44:19.190Z,48.81
2018-09-12T04:45:28.622Z,48.81
2018-09-12T04:46:38.325Z,49.1
2018-09-12T04:47:48.258Z,49
2018-09-12T04:48:57.686Z,49
2018-09-12T04:50:07.120Z,49.29
2018-09-12T04:51:16.569Z,49.19
2018-09-12T04:52:26.256Z,49.19
2018-09-12T04:53:35.171Z,49.1
2018-09-12T04:54:44.346Z,49.1
2018-09-12T04:55:54.044Z,49.1
2018-09-12T04:57:03.483Z,49.19
2018-09-12T04:58:12.907Z,49.19
2018-09-12T04:59:21.848Z,49.17
2018-09-12T05:00:31.340Z,49.46
2018-09-12T05:01:40.788Z,49.58
2018-09-12T05:02:50.378Z,49.49
2018-09-12T05:04:00.135Z,49.29
2018-09-12T05:05:09.656Z,49.1
2018-09-12T05:06:19.080Z,49.19
2018-09-12T05:07:28.326Z,49.07
2018-09-12T05:08:37.551Z,49.19
2018-09-12T05:09:47.238Z,49.07
2018-09-12T05:10:56.957Z,49.19
2018-09-12T05:12:06.651Z,49.19
2018-09-12T05:13:15.341Z,49.07
2018-09-12T05:14:24.511Z,49.1
2018-09-12T05:15:33.688Z,49.07
2018-09-12T05:16:43.491Z,49.1
2018-09-12T05:17:53.410Z,49.1
2018-09-12T05:19:02.880Z,49.19
2018-09-12T05:20:12.292Z,49.19
2018-09-12T05:21:21.995Z,49.1
2018-09-12T05:22:31.740Z,49.07
2018-09-12T05:23:41.195Z,49.1
2018-09-12T05:24:50.372Z,49.07
2018-09-12T05:25:59.866Z,49.17
2018-09-12T05:27:09.080Z,49.39
2018-09-12T05:28:18.882Z,49.46
2018-09-12T05:29:28.419Z,49.27
2018-09-12T05:30:38.104Z,49.27
2018-09-12T05:31:47.549Z,49.29
2018-09-12T05:32:56.980Z,49.27
2018-09-12T05:34:06.979Z,49.65
2018-09-12T05:35:16.435Z,49.65
2018-09-12T05:36:25.702Z,49.65
2018-09-12T05:37:35.280Z,49.68
2018-09-12T05:38:44.735Z,49.68
2018-09-12T05:39:54.431Z,49.46
2018-09-12T05:41:04.130Z,49.29
2018-09-12T05:42:13.818Z,49.65
2018-09-12T05:43:23.516Z,49.55
2018-09-12T05:44:32.967Z,49.07
2018-09-12T05:45:42.410Z,49.07
2018-09-12T05:46:52.085Z,49.07
2018-09-12T05:48:01.556Z,49.07
2018-09-12T05:49:11.523Z,49.49
2018-09-12T05:50:21.419Z,49
2018-09-12T05:51:30.907Z,49
2018-09-12T05:52:39.832Z,48.9
2018-09-12T05:53:49.517Z,49
2018-09-12T05:54:59.208Z,48.81
2018-09-12T05:56:08.647Z,49
2018-09-12T05:57:18.577Z,48.81
2018-09-12T05:58:28.012Z,49.1
2018-09-12T05:59:36.958Z,48.81
2018-09-12T06:00:46.654Z,49.29
2018-09-12T06:01:56.227Z,49.1
2018-09-12T06:03:05.941Z,49.1
2018-09-12T06:04:15.438Z,48.9
2018-09-12T06:05:24.894Z,48.9
2018-09-12T06:06:35.090Z,48.9
2018-09-12T06:07:44.442Z,48.9
2018-09-12T06:08:53.366Z,49
2018-09-12T06:10:02.558Z,48.9
2018-09-12T06:11:12.038Z,48.61
2018-09-12T06:12:21.219Z,48.81
2018-09-12T06:13:30.418Z,48.61
2018-09-12T06:14:40.147Z,48.9
2018-09-12T06:15:49.357Z,48.61
2018-09-12T06:16:58.592Z,48.52
2018-09-12T06:18:08.043Z,48.52
2018-09-12T06:19:17.243Z,48.61
2018-09-12T06:20:26.933Z,48.71
2018-09-12T06:21:36.378Z,48.81
2018-09-12T06:22:45.562Z,48.61
2018-09-12T06:23:55.261Z,48.61
2018-09-12T06:25:04.466Z,48.71
2018-09-12T06:26:13.910Z,48.81
2018-09-12T06:27:23.649Z,48.81
2018-09-12T06:28:33.375Z,48.61
2018-09-12T06:29:43.143Z,48.74
2018-09-12T06:30:52.760Z,48.61
2018-09-12T06:32:02.242Z,48.61
2018-09-12T06:33:11.686Z,48.81
2018-09-12T06:34:21.367Z,48.81
2018-09-12T06:35:30.518Z,48.81
2018-09-12T06:36:40.181Z,48.61
2018-09-12T06:37:49.702Z,48.81
2018-09-12T06:38:59.644Z,48.71
2018-09-12T06:40:09.123Z,48.81
2018-09-12T06:41:18.605Z,48.61
2018-09-12T06:42:28.553Z,48.81
2018-09-12T06:43:38.000Z,48.61
2018-09-12T06:44:47.812Z,48.71
2018-09-12T06:45:57.250Z,48.52
2018-09-12T06:47:06.456Z,48.81
2018-09-12T06:48:15.942Z,49.29
2018-09-12T06:49:25.943Z,48.61
2018-09-12T06:50:35.375Z,48.61
2018-09-12T06:51:45.063Z,48.52
2018-09-12T06:52:55.023Z,48.61
2018-09-12T06:54:04.782Z,48.52
2018-09-12T06:55:13.986Z,48.71
2018-09-12T06:56:23.186Z,48.81
2018-09-12T06:57:32.637Z,48.81
2018-09-12T06:58:41.554Z,48.81
2018-09-12T06:59:50.999Z,48.71
2018-09-12T07:01:00.845Z,48.71
2018-09-12T07:02:10.925Z,48.71
2018-09-12T07:03:19.885Z,48.74
2018-09-12T07:04:28.819Z,48.71
2018-09-12T07:05:38.248Z,48.61
2018-09-12T07:06:47.422Z,48.9
2018-09-12T07:07:56.594Z,49.02
2018-09-12T07:09:05.764Z,48.64
2018-09-12T07:10:15.449Z,48.64
2018-09-12T07:11:24.976Z,48.64
2018-09-12T07:12:34.729Z,48.64
2018-09-12T07:13:44.450Z,48.74
2018-09-12T07:14:54.148Z,48.64
2018-09-12T07:16:03.092Z,48.83
2018-09-12T07:17:12.529Z,48.54
2018-09-12T07:18:21.211Z,48.83
2018-09-12T07:19:30.654Z,48.74
2018-09-12T07:20:39.860Z,48.74
2018-09-12T07:21:49.820Z,48.74
2018-09-12T07:22:59.788Z,48.83
2018-09-12T07:24:08.735Z,48.83
2018-09-12T07:25:18.233Z,49.02
2018-09-12T07:26:27.933Z,48.74
2018-09-12T07:27:37.823Z,49.02
2018-09-12T07:28:47.798Z,48.83
2018-09-12T07:29:57.250Z,48.83
2018-09-12T07:31:06.675Z,48.74
2018-09-12T07:32:15.874Z,48.74
2018-09-12T07:33:25.339Z,48.93
2018-09-12T07:34:35.021Z,48.74
2018-09-12T07:35:44.736Z,48.93
2018-09-12T07:36:54.456Z,48.54
2018-09-12T07:38:03.384Z,48.93
2018-09-12T07:39:12.553Z,48.54
2018-09-12T07:40:21.992Z,48.54
2018-09-12T07:41:31.475Z,48.54
2018-09-12T07:42:41.005Z,48.83
2018-09-12T07:43:50.176Z,48.54
2018-09-12T07:44:59.634Z,48.54
2018-09-12T07:46:08.551Z,48.64
2018-09-12T07:47:18.240Z,48.54
2018-09-12T07:48:27.916Z,48.54
2018-09-12T07:49:37.607Z,48.64
2018-09-12T07:50:47.028Z,48.64
2018-09-12T07:51:56.208Z,48.54
2018-09-12T07:53:05.659Z,48.64
2018-09-12T07:54:15.395Z,48.64
2018-09-12T07:55:25.401Z,48.74
2018-09-12T07:56:35.371Z,48.83
2018-09-12T07:57:44.880Z,48.64
2018-09-12T07:58:54.310Z,48.64
2018-09-12T08:00:03.301Z,48.64
2018-09-12T08:01:13.455Z,48.54
2018-09-12T08:02:23.440Z,48.74
2018-09-12T08:03:33.420Z,48.83
2018-09-12T08:04:43.158Z,48.64
2018-09-12T08:05:52.918Z,48.83
2018-09-12T08:07:02.358Z,48.83
2018-09-12T08:08:11.846Z,48.64
2018-09-12T08:09:22.054Z,48.93
2018-09-12T08:10:31.296Z,48.93
2018-09-12T08:11:40.474Z,48.54
2018-09-12T08:12:50.276Z,48.64
2018-09-12T08:13:59.744Z,48.74
2018-09-12T08:15:08.678Z,48.64
2018-09-12T08:16:18.163Z,48.83
2018-09-12T08:17:27.385Z,49.02
2018-09-12T08:18:36.848Z,48.83
2018-09-12T08:19:46.068Z,48.93
2018-09-12T08:20:55.567Z,49.02
2018-09-12T08:22:05.341Z,48.83
2018-09-12T08:23:14.788Z,48.83
2018-09-12T08:24:24.247Z,48.83
2018-09-12T08:25:33.675Z,48.83
2018-09-12T08:26:43.845Z,48.74
2018-09-12T08:27:53.725Z,49.02
2018-09-12T08:29:03.702Z,48.64
2018-09-12T08:30:13.701Z,48.64
2018-09-12T08:31:23.452Z,49.02
2018-09-12T08:32:33.196Z,48.93
2018-09-12T08:33:42.915Z,49.02
2018-09-12T08:34:52.647Z,48.83
2018-09-12T08:36:01.890Z,48.93
2018-09-12T08:37:11.891Z,48.93
2018-09-12T08:38:21.348Z,48.83
2018-09-12T08:39:30.536Z,48.93
2018-09-12T08:40:39.460Z,48.93
2018-09-12T08:41:49.154Z,48.93
2018-09-12T08:42:58.951Z,48.93
2018-09-12T08:44:08.413Z,48.93
2018-09-12T08:45:17.954Z,48.93
2018-09-12T08:46:27.926Z,48.93
2018-09-12T08:47:37.648Z,48.93
2018-09-12T08:48:47.275Z,49.02
2018-09-12T08:49:57.218Z,49.02
2018-09-12T08:51:06.671Z,48.93
2018-09-12T08:52:16.630Z,49.02
2018-09-12T08:53:26.052Z,49.12
2018-09-12T08:54:35.216Z,48.93
2018-09-12T08:55:44.904Z,49.02
2018-09-12T08:56:54.580Z,49.02
2018-09-12T08:58:03.931Z,49.12
2018-09-12T08:59:13.103Z,48.93
2018-09-12T09:00:22.590Z,49.02
2018-09-12T09:01:32.430Z,49.12
2018-09-12T09:02:42.641Z,49.02
2018-09-12T09:03:51.886Z,49.02
2018-09-12T09:05:01.993Z,49.12
2018-09-12T09:06:11.420Z,48.93
2018-09-12T09:07:21.357Z,48.93
2018-09-12T09:08:30.794Z,48.93
2018-09-12T09:09:39.981Z,49.12
2018-09-12T09:10:49.695Z,49.12
2018-09-12T09:11:59.704Z,49.02
2018-09-12T09:13:08.629Z,49.12
2018-09-12T09:14:18.069Z,48.93
2018-09-12T09:15:26.997Z,48.93
2018-09-12T09:16:36.685Z,49.12
2018-09-12T09:17:46.395Z,48.93
2018-09-12T09:18:55.044Z,48.93
2018-09-12T09:20:04.271Z,48.93
2018-09-12T09:21:13.449Z,49.02
2018-09-12T09:22:23.125Z,48.93
2018-09-12T09:23:32.919Z,48.93
2018-09-12T09:24:42.420Z,48.93
2018-09-12T09:25:52.096Z,48.93
2018-09-12T09:27:01.797Z,48.74
2018-09-12T09:28:11.509Z,48.93
2018-09-12T09:29:21.285Z,48.93
2018-09-12T09:30:31.247Z,48.64
2018-09-12T09:31:40.721Z,49.12
2018-09-12T09:32:51.019Z,49.02
2018-09-12T09:34:00.480Z,49.02
2018-09-12T09:35:09.478Z,48.93
2018-09-12T09:36:19.608Z,48.83
2018-09-12T09:37:29.059Z,48.64
2018-09-12T09:38:38.030Z,49.12
2018-09-12T09:39:47.781Z,48.83
2018-09-12T09:40:57.260Z,48.93
2018-09-12T09:42:07.103Z,48.64
2018-09-12T09:43:16.834Z,48.64
2018-09-12T09:44:26.114Z,48.93
2018-09-12T09:45:35.849Z,48.83
2018-09-12T09:46:45.599Z,48.93
2018-09-12T09:47:55.342Z,49.12
2018-09-12T09:49:05.157Z,49.02
2018-09-12T09:50:14.644Z,48.93
2018-09-12T09:51:23.878Z,48.93
2018-09-12T09:52:33.348Z,49.02
2018-09-12T09:53:42.821Z,48.93
2018-09-12T09:54:52.105Z,49.02
2018-09-12T09:56:01.908Z,49.32
2018-09-12T09:57:11.941Z,48.93
2018-09-12T09:58:21.476Z,49.02
2018-09-12T09:59:31.229Z,48.93
2018-09-12T10:00:40.949Z,48.93
2018-09-12T10:01:50.708Z,48.93
2018-09-12T10:02:59.922Z,48.93
2018-09-12T10:04:08.632Z,49.02
2018-09-12T10:05:18.074Z,48.93
2018-09-12T10:06:27.810Z,49.02
2018-09-12T10:07:37.290Z,49.02
2018-09-12T10:08:46.448Z,49.12
2018-09-12T10:09:55.363Z,49.22
2018-09-12T10:11:04.277Z,49.12
2018-09-12T10:12:13.453Z,49.22
2018-09-12T10:13:23.393Z,49.22
2018-09-12T10:14:32.822Z,48.93
2018-09-12T10:15:42.770Z,49.02
2018-09-12T10:16:52.036Z,49.12
2018-09-12T10:18:01.486Z,49.22
2018-09-12T10:19:11.456Z,48.93
2018-09-12T10:20:20.624Z,48.93
2018-09-12T10:21:29.799Z,49.32
2018-09-12T10:22:39.336Z,49.22
2018-09-12T10:23:48.776Z,49.24
2018-09-12T10:24:58.197Z,48.83
2018-09-12T10:26:07.940Z,48.83
2018-09-12T10:27:17.660Z,48.83
2018-09-12T10:28:26.319Z,49.24
2018-09-12T10:29:35.746Z,49.12
2018-09-12T10:30:44.902Z,48.93
2018-09-12T10:31:54.068Z,49.22
2018-09-12T10:33:03.756Z,48.83
2018-09-12T10:34:12.922Z,49.02
2018-09-12T10:35:22.348Z,48.86
2018-09-12T10:36:31.842Z,48.86
2018-09-12T10:37:41.277Z,49.02
2018-09-12T10:38:50.961Z,49.12
2018-09-12T10:40:00.749Z,48.95
2018-09-12T10:41:10.599Z,49.02
2018-09-12T10:42:20.280Z,49.02
2018-09-12T10:43:29.720Z,49.02
2018-09-12T10:44:39.210Z,49.05
2018-09-12T10:45:48.637Z,49.02
2018-09-12T10:46:58.076Z,49.15
2018-09-12T10:48:08.016Z,49.15
2018-09-12T10:49:17.441Z,49.12
2018-09-12T10:50:27.147Z,49.24
2018-09-12T10:51:36.366Z,49.24
2018-09-12T10:52:45.522Z,48.93
2018-09-12T10:53:54.708Z,49.34
2018-09-12T10:55:04.154Z,49.05
2018-09-12T10:56:13.581Z,49.24
2018-09-12T10:57:23.123Z,49.02
2018-09-12T10:58:32.813Z,48.93
2018-09-12T10:59:41.975Z,49.05
2018-09-12T11:00:51.131Z,48.86
2018-09-12T11:02:00.823Z,49.15
2018-09-12T11:03:09.983Z,49.02
2018-09-12T11:04:19.207Z,48.93
2018-09-12T11:05:28.906Z,48.83
2018-09-12T11:06:38.086Z,49.05
2018-09-12T11:07:47.263Z,49.05
2018-09-12T11:08:56.740Z,49.02
2018-09-12T11:10:05.914Z,49.15
2018-09-12T11:11:15.334Z,48.86
2018-09-12T11:12:25.276Z,49.02
2018-09-12T11:13:34.431Z,48.86
2018-09-12T11:14:43.865Z,48.95
2018-09-12T11:15:53.563Z,48.93
2018-09-12T11:17:02.788Z,49.22
2018-09-12T11:18:11.978Z,49.02
2018-09-12T11:19:21.669Z,49.05
2018-09-12T11:20:30.837Z,49.05
2018-09-12T11:21:40.250Z,49.05
2018-09-12T11:22:49.436Z,48.86
2018-09-12T11:23:58.670Z,48.93
2018-09-12T11:25:08.392Z,48.86
2018-09-12T11:26:17.835Z,49.12
2018-09-12T11:27:26.740Z,48.83
2018-09-12T11:28:36.161Z,48.83
2018-09-12T11:29:45.666Z,48.95
2018-09-12T11:30:55.610Z,49.02
2018-09-12T11:32:05.051Z,48.86
2018-09-12T11:33:14.261Z,48.83
2018-09-12T11:34:24.051Z,48.95
2018-09-12T11:35:33.188Z,49.02
2018-09-12T11:36:43.566Z,48.83
2018-09-12T11:37:52.739Z,49.22
2018-09-12T11:39:01.916Z,49.05
2018-09-12T11:40:11.259Z,49.02
2018-09-12T11:41:21.542Z,49.32
2018-09-12T11:42:30.961Z,48.83
2018-09-12T11:43:40.127Z,49.05
2018-09-12T11:44:50.066Z,49.02
2018-09-12T11:45:59.516Z,48.95
2018-09-12T11:47:09.271Z,48.83
2018-09-12T11:48:18.517Z,49.24
2018-09-12T11:49:27.792Z,49.02
2018-09-12T11:50:37.215Z,49.22
2018-09-12T11:51:46.452Z,49.22
2018-09-12T11:52:56.142Z,49.02
2018-09-12T11:54:05.820Z,49.15
2018-09-12T11:55:15.223Z,49.02
2018-09-12T11:56:24.714Z,49.02
2018-09-12T11:57:34.198Z,48.86
2018-09-12T11:58:43.866Z,49.02
2018-09-12T11:59:53.330Z,49.05
2018-09-12T12:01:02.528Z,49.15
2018-09-12T12:02:12.624Z,49.05
2018-09-12T12:03:23.052Z,49.05
2018-09-12T12:04:32.490Z,49.12
2018-09-12T12:05:41.677Z,49.15
2018-09-12T12:06:51.382Z,49.05
2018-09-12T12:08:00.818Z,49.15
2018-09-12T12:09:09.479Z,49.02
2018-09-12T12:10:18.672Z,48.83
2018-09-12T12:11:28.112Z,48.93
2018-09-12T12:12:37.397Z,48.86
2018-09-12T12:13:47.088Z,48.93
2018-09-12T12:14:56.300Z,48.95
2018-09-12T12:16:05.510Z,49.15
2018-09-12T12:17:14.685Z,48.95
2018-09-12T12:18:24.376Z,49.12
2018-09-12T12:19:34.063Z,48.76
2018-09-12T12:20:43.233Z,49.05
2018-09-12T12:21:52.925Z,49.05
2018-09-12T12:23:02.450Z,49.05
2018-09-12T12:24:12.282Z,49.02
2018-09-12T12:25:21.451Z,49.02
2018-09-12T12:26:30.611Z,49.05
2018-09-12T12:27:40.042Z,49.24
2018-09-12T12:28:49.786Z,48.95
2018-09-12T12:29:58.951Z,49.02
2018-09-12T12:31:08.372Z,49.05
2018-09-12T12:32:17.809Z,49.05
2018-09-12T12:33:26.711Z,48.95
2018-09-12T12:34:36.200Z,48.95
2018-09-12T12:35:45.373Z,49.05
2018-09-12T12:36:55.314Z,49.05
2018-09-12T12:38:05.038Z,49.05
2018-09-12T12:39:14.528Z,49.02
2018-09-12T12:40:23.705Z,48.95
2018-09-12T12:41:32.876Z,48.86
2018-09-12T12:42:42.837Z,48.95
2018-09-12T12:43:52.541Z,49.02
2018-09-12T12:45:01.690Z,49.15
2018-09-12T12:46:11.159Z,49.15
2018-09-12T12:47:21.120Z,48.86
2018-09-12T12:48:30.539Z,49.05
2018-09-12T12:49:39.449Z,49.24
2018-09-12T12:50:48.614Z,49.15
2018-09-12T12:51:58.287Z,49.24
2018-09-12T12:53:08.230Z,48.86
2018-09-12T12:54:17.654Z,48.95
2018-09-12T12:55:27.361Z,48.95
2018-09-12T12:56:37.065Z,48.86
2018-09-12T12:57:46.252Z,48.95
2018-09-12T12:58:55.461Z,48.66
2018-09-12T13:00:05.142Z,48.86
2018-09-12T13:01:15.085Z,48.95
2018-09-12T13:02:24.288Z,48.86
2018-09-12T13:03:33.972Z,49.15
2018-09-12T13:04:43.189Z,49.05
2018-09-12T13:05:52.646Z,48.95
2018-09-12T13:07:02.476Z,48.95
2018-09-12T13:08:12.208Z,49.05
2018-09-12T13:09:22.004Z,49.05
2018-09-12T13:10:31.530Z,48.95
2018-09-12T13:11:41.220Z,48.95
2018-09-12T13:12:50.463Z,48.86
2018-09-12T13:14:00.000Z,48.86
2018-09-12T13:15:09.536Z,49.05
2018-09-12T13:16:19.546Z,48.95
2018-09-12T13:17:29.074Z,48.66
2018-09-12T13:18:38.868Z,48.86
2018-09-12T13:19:48.652Z,48.66
2018-09-12T13:20:57.930Z,48.66
2018-09-12T13:22:07.443Z,48.66
2018-09-12T13:23:16.955Z,48.57
2018-09-12T13:24:26.759Z,48.66
2018-09-12T13:25:36.481Z,48.57
2018-09-12T13:26:46.234Z,48.86
2018-09-12T13:27:56.240Z,48.95
2018-09-12T13:29:06.027Z,48.76
2018-09-12T13:30:15.041Z,49.24
2018-09-12T13:31:24.542Z,48.76
2018-09-12T13:32:33.521Z,48.76
2018-09-12T13:33:42.677Z,48.66
2018-09-12T13:34:51.590Z,48.66
2018-09-12T13:36:01.281Z,49.05
2018-09-12T13:37:11.020Z,48.66
2018-09-12T13:38:20.459Z,49.05
2018-09-12T13:39:29.630Z,48.66
2018-09-12T13:40:39.097Z,48.76
2018-09-12T13:41:48.813Z,48.86
2018-09-12T13:42:58.070Z,48.76
2018-09-12T13:44:07.575Z,48.76
2018-09-12T13:45:17.013Z,48.76
2018-09-12T13:46:26.259Z,48.86
2018-09-12T13:47:35.845Z,48.86
2018-09-12T13:48:45.390Z,48.95
2018-09-12T13:49:54.608Z,48.86
2018-09-12T13:51:04.140Z,48.86
2018-09-12T13:52:13.357Z,48.86
2018-09-12T13:53:22.827Z,48.66
2018-09-12T13:54:32.825Z,48.76
2018-09-12T13:55:42.907Z,49.05
2018-09-12T13:56:52.365Z,49.07
2018-09-12T13:58:01.683Z,49.05
2018-09-12T13:59:10.935Z,49.05
2018-09-12T14:00:20.641Z,48.95
2018-09-12T14:01:30.351Z,49.07
2018-09-12T14:02:41.307Z,48.95
2018-09-12T14:03:50.865Z,49.05
2018-09-12T14:05:00.607Z,48.95
2018-09-12T14:06:10.094Z,49.15
2018-09-12T14:07:19.030Z,49.05
2018-09-12T14:08:28.509Z,49.05
2018-09-12T14:09:37.741Z,48.97
2018-09-12T14:10:47.198Z,49.07
2018-09-12T14:11:56.149Z,49.05
2018-09-12T14:13:05.356Z,49.07
2018-09-12T14:14:15.050Z,49.05
2018-09-12T14:15:24.531Z,49.07
2018-09-12T14:16:34.248Z,48.86
2018-09-12T14:17:44.202Z,48.88
2018-09-12T14:18:53.627Z,49.05
2018-09-12T14:20:02.846Z,48.95
2018-09-12T14:21:12.290Z,49.07
2018-09-12T14:22:22.297Z,48.86
2018-09-12T14:23:31.997Z,48.88
2018-09-12T14:24:40.685Z,49.07
2018-09-12T14:25:50.670Z,49.15
2018-09-12T14:27:00.089Z,48.88
2018-09-12T14:28:09.519Z,48.97
2018-09-12T14:29:19.246Z,48.88
2018-09-12T14:30:28.951Z,48.95
2018-09-12T14:31:38.549Z,48.88
2018-09-12T14:32:47.973Z,48.86
2018-09-12T14:33:56.884Z,48.88
2018-09-12T14:35:06.360Z,48.69
2018-09-12T14:36:15.622Z,48.76
2018-09-12T14:37:25.312Z,48.88
2018-09-12T14:38:34.282Z,48.95
2018-09-12T14:39:43.994Z,48.86
2018-09-12T14:40:53.223Z,48.86
2018-09-12T14:42:02.479Z,48.59
2018-09-12T14:43:12.733Z,48.57
2018-09-12T14:44:21.958Z,48.66
2018-09-12T14:45:31.426Z,48.66
2018-09-12T14:46:40.591Z,48.66
2018-09-12T14:47:49.773Z,48.66
2018-09-12T14:48:58.671Z,48.86
2018-09-12T14:50:08.129Z,48.88
2018-09-12T14:51:17.663Z,49.05
2018-09-12T14:52:26.602Z,48.95
2018-09-12T14:53:35.820Z,48.95
2018-09-12T14:54:44.470Z,48.95
2018-09-12T14:55:53.655Z,48.95
2018-09-12T14:57:03.397Z,48.95
2018-09-12T14:58:12.322Z,48.95
2018-09-12T14:59:21.260Z,48.86
2018-09-12T15:00:30.417Z,48.95
2018-09-12T15:01:39.623Z,48.86
2018-09-12T15:02:49.034Z,48.86
2018-09-12T15:03:58.209Z,48.86
2018-09-12T15:05:07.646Z,48.86